createdAt,value
2022-09-28T00:00:09.152Z,26.6
2022-09-28T00:01:11.628Z,26.6
2022-09-28T00:02:14.486Z,26.6
2022-09-28T00:03:17.424Z,26.6
2022-09-28T00:04:19.890Z,26.6
2022-09-28T00:05:22.373Z,26.6
2022-09-28T00:06:24.933Z,26.7
2022-09-28T00:07:27.126Z,26.7
2022-09-28T00:08:29.627Z,26.7
2022-09-28T00:09:31.868Z,26.7
2022-09-28T00:10:34.334Z,26.7
2022-09-28T00:11:36.809Z,26.7
2022-09-28T00:12:39.295Z,26.7
2022-09-28T00:13:41.521Z,26.7
2022-09-28T00:14:43.994Z,26.7
2022-09-28T00:15:46.178Z,26.7
2022-09-28T00:16:48.908Z,26.7
2022-09-28T00:17:51.550Z,26.7
2022-09-28T00:18:54.014Z,26.7
2022-09-28T00:19:56.506Z,26.8
2022-09-28T00:20:58.148Z,26.8
2022-09-28T00:22:00.647Z,26.8
2022-09-28T00:23:02.295Z,26.8
2022-09-28T00:24:04.214Z,26.8
2022-09-28T00:25:06.437Z,26.8
2022-09-28T00:26:08.627Z,26.8
2022-09-28T00:27:11.096Z,26.8
2022-09-28T00:28:13.286Z,26.8
2022-09-28T00:29:16.015Z,26.8
2022-09-28T00:30:18.459Z,26.8
2022-09-28T00:31:21.144Z,26.8
2022-09-28T00:32:23.520Z,26.8
2022-09-28T00:33:25.819Z,26.8
2022-09-28T00:34:28.056Z,26.8
2022-09-28T00:35:30.252Z,26.8
2022-09-28T00:36:32.718Z,26.8
2022-09-28T00:37:34.933Z,26.8
2022-09-28T00:38:37.128Z,26.8
2022-09-28T00:39:39.337Z,26.8
2022-09-28T00:40:41.711Z,26.8
2022-09-28T00:41:44.046Z,26.8
2022-09-28T00:42:46.245Z,26.9
2022-09-28T00:43:48.468Z,26.9
2022-09-28T00:44:50.677Z,26.9
2022-09-28T00:45:53.378Z,26.9
2022-09-28T00:46:56.132Z,26.9
2022-09-28T00:47:58.621Z,26.9
2022-09-28T00:49:00.833Z,26.9
2022-09-28T00:50:03.309Z,26.9
2022-09-28T00:51:05.221Z,26.9
2022-09-28T00:52:07.408Z,26.9
2022-09-28T00:53:09.899Z,26.9
2022-09-28T00:54:12.099Z,26.9
2022-09-28T00:55:14.571Z,26.9
2022-09-28T00:56:16.806Z,26.9
2022-09-28T00:57:19.018Z,26.9
2022-09-28T00:58:21.191Z,26.9
2022-09-28T00:59:23.393Z,26.9
2022-09-28T01:00:25.889Z,26.9
2022-09-28T01:01:28.497Z,26.9
2022-09-28T01:02:31.218Z,26.9
2022-09-28T01:03:33.954Z,26.9
2022-09-28T01:04:36.452Z,26.9
2022-09-28T01:05:38.921Z,26.9
2022-09-28T01:06:41.395Z,26.9
2022-09-28T01:07:43.865Z,26.9
2022-09-28T01:08:46.371Z,26.9
2022-09-28T01:09:48.844Z,26.9
2022-09-28T01:10:50.224Z,26.9
2022-09-28T01:11:52.776Z,26.9
2022-09-28T01:12:54.970Z,26.9
2022-09-28T01:13:57.150Z,26.9
2022-09-28T01:14:59.369Z,26.9
2022-09-28T01:16:01.554Z,26.9
2022-09-28T01:17:03.963Z,26.9
2022-09-28T01:18:05.884Z,26.9
2022-09-28T01:19:08.347Z,26.9
2022-09-28T01:20:10.575Z,26.9
2022-09-28T01:21:13.046Z,26.9
2022-09-28T01:22:15.527Z,26.9
2022-09-28T01:23:18.005Z,26.9
2022-09-28T01:24:20.523Z,26.9
2022-09-28T01:25:22.993Z,26.9
2022-09-28T01:26:25.191Z,26.9
2022-09-28T01:27:27.702Z,26.9
2022-09-28T01:28:29.622Z,26.9
2022-09-28T01:29:31.816Z,26.9
2022-09-28T01:30:34.311Z,26.9
2022-09-28T01:31:37.058Z,26.9
2022-09-28T01:32:39.677Z,26.9
2022-09-28T01:33:41.594Z,26.9
2022-09-28T01:34:43.791Z,26.9
2022-09-28T01:35:46.014Z,26.9
2022-09-28T01:36:48.491Z,26.9
2022-09-28T01:37:50.694Z,26.9
2022-09-28T01:38:53.000Z,26.9
2022-09-28T01:39:54.950Z,26.9
2022-09-28T01:40:57.137Z,26.9
2022-09-28T01:41:59.811Z,26.9
2022-09-28T01:43:02.306Z,26.9
2022-09-28T01:44:04.777Z,26.9
2022-09-28T01:45:07.253Z,26.9
2022-09-28T01:46:09.439Z,26.9
2022-09-28T01:47:12.191Z,26.9
2022-09-28T01:48:14.383Z,26.9
2022-09-28T01:49:17.010Z,26.9
2022-09-28T01:50:19.255Z,26.9
2022-09-28T01:51:21.454Z,26.9
2022-09-28T01:52:23.654Z,26.9
2022-09-28T01:53:25.571Z,26.9
2022-09-28T01:54:28.034Z,26.9
2022-09-28T01:55:30.263Z,26.9
2022-09-28T01:56:32.189Z,26.9
2022-09-28T01:57:34.667Z,26.9
2022-09-28T01:58:36.065Z,26.9
2022-09-28T01:59:38.531Z,26.9
2022-09-28T02:00:40.968Z,26.9
2022-09-28T02:01:43.854Z,26.9
2022-09-28T02:02:46.213Z,26.9
2022-09-28T02:03:48.689Z,26.9
2022-09-28T02:04:51.156Z,26.9
2022-09-28T02:05:53.658Z,26.9
2022-09-28T02:06:56.157Z,26.9
2022-09-28T02:07:58.188Z,26.9
2022-09-28T02:09:00.393Z,26.9
2022-09-28T02:10:02.878Z,26.9
2022-09-28T02:11:05.423Z,26.9
2022-09-28T02:12:07.056Z,26.9
2022-09-28T02:13:09.535Z,26.9
2022-09-28T02:14:11.183Z,26.9
2022-09-28T02:15:13.652Z,26.9
2022-09-28T02:16:15.759Z,26.9
2022-09-28T02:17:18.443Z,26.9
2022-09-28T02:18:20.654Z,26.9
2022-09-28T02:19:22.851Z,26.9
2022-09-28T02:20:25.044Z,26.9
2022-09-28T02:21:27.524Z,26.9
2022-09-28T02:22:30.013Z,26.9
2022-09-28T02:23:32.492Z,26.9
2022-09-28T02:24:34.966Z,26.9
2022-09-28T02:25:37.163Z,26.9
2022-09-28T02:26:39.379Z,26.9
2022-09-28T02:27:41.853Z,26.9
2022-09-28T02:28:43.755Z,26.9
2022-09-28T02:29:45.984Z,26.9
2022-09-28T02:30:48.453Z,26.9
2022-09-28T02:31:50.537Z,26.9
2022-09-28T02:32:52.964Z,26.9
2022-09-28T02:33:55.461Z,26.9
2022-09-28T02:34:57.927Z,26.9
2022-09-28T02:36:00.439Z,26.9
2022-09-28T02:37:02.638Z,27
2022-09-28T02:38:05.134Z,26.9
2022-09-28T02:39:07.628Z,26.9
2022-09-28T02:40:09.819Z,26.9
2022-09-28T02:41:12.005Z,26.9
2022-09-28T02:42:14.226Z,26.9
2022-09-28T02:43:16.417Z,26.9
2022-09-28T02:44:18.913Z,26.9
2022-09-28T02:45:21.143Z,26.9
2022-09-28T02:46:23.605Z,26.9
2022-09-28T02:47:26.006Z,26.9
2022-09-28T02:49:34.072Z,26.9
2022-09-28T02:50:36.631Z,26.9
2022-09-28T02:51:38.832Z,26.9
2022-09-28T02:52:41.022Z,26.9
2022-09-28T02:53:43.237Z,27
2022-09-28T02:54:45.436Z,27
2022-09-28T02:55:47.646Z,26.9
2022-09-28T02:56:50.122Z,27
2022-09-28T02:57:52.331Z,26.9
2022-09-28T02:58:53.965Z,27
2022-09-28T02:59:56.447Z,26.9
2022-09-28T03:00:58.023Z,26.9
2022-09-28T03:02:00.914Z,27
2022-09-28T03:03:03.574Z,26.9
2022-09-28T03:04:06.068Z,26.9
2022-09-28T03:05:08.540Z,26.9
2022-09-28T03:06:11.030Z,26.9
2022-09-28T03:07:13.509Z,26.9
2022-09-28T03:08:15.710Z,26.8
2022-09-28T03:09:18.263Z,26.8
2022-09-28T03:10:20.678Z,26.8
2022-09-28T03:11:22.849Z,26.8
2022-09-28T03:12:25.330Z,26.8
2022-09-28T03:13:27.869Z,26.7
2022-09-28T03:14:30.353Z,26.7
2022-09-28T03:15:32.585Z,26.7
2022-09-28T03:16:34.702Z,26.7
2022-09-28T03:17:37.081Z,26.7
2022-09-28T03:18:39.048Z,26.7
2022-09-28T03:19:41.558Z,26.7
2022-09-28T03:20:43.462Z,26.7
2022-09-28T03:21:46.023Z,26.6
2022-09-28T03:23:53.396Z,26.6
2022-09-28T03:24:55.631Z,26.6
2022-09-28T03:25:58.105Z,26.6
2022-09-28T03:27:00.332Z,26.6
2022-09-28T03:28:02.807Z,26.6
2022-09-28T03:29:05.291Z,26.6
2022-09-28T03:30:07.491Z,26.6
2022-09-28T03:31:09.894Z,26.6
2022-09-28T03:32:12.591Z,26.6
2022-09-28T03:33:14.780Z,26.5
2022-09-28T03:34:16.706Z,26.6
2022-09-28T03:35:18.934Z,26.5
2022-09-28T03:36:21.414Z,26.5
2022-09-28T03:37:23.905Z,26.5
2022-09-28T03:38:26.103Z,26.5
2022-09-28T03:39:28.573Z,26.5
2022-09-28T03:40:31.490Z,26.5
2022-09-28T03:41:34.243Z,26.5
2022-09-28T03:42:36.766Z,26.5
2022-09-28T03:43:39.237Z,26.5
2022-09-28T03:44:41.755Z,26.5
2022-09-28T03:45:44.128Z,26.5
2022-09-28T03:46:46.769Z,26.5
2022-09-28T03:47:49.271Z,26.5
2022-09-28T03:48:51.790Z,26.5
2022-09-28T03:49:54.411Z,26.5
2022-09-28T03:50:56.915Z,26.5
2022-09-28T03:51:59.129Z,26.5
2022-09-28T03:53:01.658Z,26.5
2022-09-28T03:54:03.857Z,26.5
2022-09-28T03:55:06.057Z,26.5
2022-09-28T03:56:08.585Z,26.5
2022-09-28T03:57:10.758Z,26.5
2022-09-28T03:58:12.937Z,26.5
2022-09-28T03:59:15.619Z,26.4
2022-09-28T04:00:18.329Z,26.4
2022-09-28T04:01:21.232Z,26.4
2022-09-28T04:02:24.051Z,26.4
2022-09-28T04:03:26.797Z,26.4
2022-09-28T04:04:28.981Z,26.4
2022-09-28T04:05:31.463Z,26.4
2022-09-28T04:06:33.945Z,26.4
2022-09-28T04:07:36.419Z,26.4
2022-09-28T04:08:38.625Z,26.4
2022-09-28T04:09:41.107Z,26.4
2022-09-28T04:10:43.298Z,26.4
2022-09-28T04:12:50.850Z,26.4
2022-09-28T04:13:53.342Z,26.4
2022-09-28T04:14:55.546Z,26.4
2022-09-28T04:15:58.211Z,26.4
2022-09-28T04:17:00.879Z,26.4
2022-09-28T04:18:02.522Z,26.4
2022-09-28T04:19:04.469Z,26.4
2022-09-28T04:20:06.976Z,26.3
2022-09-28T04:21:09.487Z,26.3
2022-09-28T04:22:11.970Z,26.3
2022-09-28T04:23:14.164Z,26.3
2022-09-28T04:24:16.394Z,26.3
2022-09-28T04:25:18.880Z,26.3
2022-09-28T04:26:20.802Z,26.3
2022-09-28T04:27:22.703Z,26.3
2022-09-28T04:28:25.192Z,26.3
2022-09-28T04:29:27.695Z,26.3
2022-09-28T04:30:30.231Z,26.3
2022-09-28T04:31:32.957Z,26.3
2022-09-28T04:32:35.766Z,26.3
2022-09-28T04:33:38.266Z,26.3
2022-09-28T04:35:45.489Z,26.3
2022-09-28T04:36:47.948Z,26.3
2022-09-28T04:37:50.445Z,26.3
2022-09-28T04:38:54.557Z,26.3
2022-09-28T04:39:57.058Z,26.3
2022-09-28T04:40:59.760Z,26.3
2022-09-28T04:42:02.346Z,26.3
2022-09-28T04:43:04.540Z,26.3
2022-09-28T04:44:07.039Z,26.3
2022-09-28T04:45:09.238Z,26.3
2022-09-28T04:46:12.037Z,26.3
2022-09-28T04:47:14.825Z,26.3
2022-09-28T04:48:17.303Z,26.3
2022-09-28T04:49:19.626Z,26.3
2022-09-28T04:50:21.275Z,26.3
2022-09-28T04:51:23.781Z,26.3
2022-09-28T04:52:25.955Z,26.3
2022-09-28T04:53:28.203Z,26.3
2022-09-28T04:54:30.138Z,26.3
2022-09-28T04:55:32.357Z,26.3
2022-09-28T04:56:34.830Z,26.3
2022-09-28T04:57:37.126Z,26.3
2022-09-28T04:58:39.050Z,26.3
2022-09-28T04:59:41.254Z,26.3
2022-09-28T05:00:43.935Z,26.3
2022-09-28T05:01:46.249Z,26.3
2022-09-28T05:02:48.489Z,26.3
2022-09-28T05:03:50.672Z,26.3
2022-09-28T05:04:52.893Z,26.3
2022-09-28T05:05:55.090Z,26.3
2022-09-28T05:06:57.310Z,26.3
2022-09-28T05:07:59.502Z,26.3
2022-09-28T05:09:01.716Z,26.3
2022-09-28T05:10:03.920Z,26.3
2022-09-28T05:11:06.411Z,26.2
2022-09-28T05:12:08.607Z,26.2
2022-09-28T05:13:10.810Z,26.2
2022-09-28T05:14:13.298Z,26.2
2022-09-28T05:15:15.818Z,26.2
2022-09-28T05:16:18.502Z,26.2
2022-09-28T05:17:21.098Z,26.2
2022-09-28T05:18:23.642Z,26.2
2022-09-28T05:19:26.127Z,26.2
2022-09-28T05:20:28.047Z,26.2
2022-09-28T05:21:29.700Z,26.2
2022-09-28T05:22:32.242Z,26.2
2022-09-28T05:23:35.618Z,26.2
2022-09-28T05:24:37.544Z,26.2
2022-09-28T05:25:39.773Z,26.2
2022-09-28T05:26:42.264Z,26.2
2022-09-28T05:27:44.477Z,26.2
2022-09-28T05:28:46.948Z,26.2
2022-09-28T05:29:49.136Z,26.2
2022-09-28T05:30:51.376Z,26.2
2022-09-28T05:31:54.057Z,26.2
2022-09-28T05:32:56.734Z,26.2
2022-09-28T05:33:58.972Z,26.2
2022-09-28T05:35:01.509Z,26.2
2022-09-28T05:36:03.709Z,26.2
2022-09-28T05:37:06.198Z,26.2
2022-09-28T05:38:08.703Z,26.2
2022-09-28T05:39:11.471Z,26.2
2022-09-28T05:40:13.718Z,26.2
2022-09-28T05:41:16.167Z,26.2
2022-09-28T05:42:18.665Z,26.2
2022-09-28T05:43:21.141Z,26.2
2022-09-28T05:44:23.609Z,26.2
2022-09-28T05:45:26.438Z,26.2
2022-09-28T05:46:29.289Z,26.2
2022-09-28T05:47:31.749Z,26.2
2022-09-28T05:48:33.949Z,26.2
2022-09-28T05:49:36.181Z,26.2
2022-09-28T05:50:38.657Z,26.2
2022-09-28T05:51:41.136Z,26.2
2022-09-28T05:52:43.308Z,26.2
2022-09-28T05:53:45.247Z,26.2
2022-09-28T05:54:47.167Z,26.2
2022-09-28T05:55:49.424Z,26.2
2022-09-28T05:56:51.330Z,26.2
2022-09-28T05:57:53.829Z,26.2
2022-09-28T05:58:56.044Z,26.2
2022-09-28T05:59:57.972Z,26.2
2022-09-28T06:01:00.759Z,26.2
2022-09-28T06:02:03.356Z,26.2
2022-09-28T06:04:11.241Z,26.2
2022-09-28T06:05:13.495Z,26.2
2022-09-28T06:06:15.729Z,26.2
2022-09-28T06:07:18.213Z,26.2
2022-09-28T06:08:20.698Z,26.2
2022-09-28T06:10:27.639Z,26.2
2022-09-28T06:11:30.284Z,26.2
2022-09-28T06:12:32.478Z,26.2
2022-09-28T06:13:34.967Z,26.2
2022-09-28T06:14:37.449Z,26.2
2022-09-28T06:15:39.920Z,26.2
2022-09-28T06:17:47.401Z,26.2
2022-09-28T06:18:49.597Z,26.2
2022-09-28T06:19:51.799Z,26.2
2022-09-28T06:20:54.306Z,26.2
2022-09-28T06:23:01.772Z,26.2
2022-09-28T06:24:03.972Z,26.2
2022-09-28T06:25:06.449Z,26.2
2022-09-28T06:26:08.712Z,26.2
2022-09-28T06:27:11.220Z,26.2
2022-09-28T06:28:13.716Z,26.2
2022-09-28T06:30:20.930Z,26.2
2022-09-28T06:31:23.431Z,26.2
2022-09-28T06:32:25.853Z,26.2
2022-09-28T06:33:28.338Z,26.2
2022-09-28T06:34:30.284Z,26.2
2022-09-28T06:35:32.761Z,26.2
2022-09-28T06:36:35.323Z,26.2
2022-09-28T06:37:37.247Z,26.2
2022-09-28T06:38:39.728Z,26.2
2022-09-28T06:39:42.208Z,26.2
2022-09-28T06:40:44.394Z,26.2
2022-09-28T06:41:46.799Z,26.2
2022-09-28T06:42:49.319Z,26.2
2022-09-28T06:43:51.530Z,26.2
2022-09-28T06:44:54.029Z,26.2
2022-09-28T06:45:56.520Z,26.2
2022-09-28T06:46:59.243Z,26.2
2022-09-28T06:48:01.722Z,26.2
2022-09-28T06:49:03.929Z,26.2
2022-09-28T06:50:05.863Z,26.2
2022-09-28T06:51:08.343Z,26.2
2022-09-28T06:52:10.563Z,26.2
2022-09-28T06:53:12.770Z,26.2
2022-09-28T06:54:15.308Z,26.2
2022-09-28T06:55:17.717Z,26.2
2022-09-28T06:56:20.213Z,26.2
2022-09-28T06:57:22.448Z,26.2
2022-09-28T06:58:24.938Z,26.2
2022-09-28T06:59:27.178Z,26.2
2022-09-28T07:00:29.691Z,26.2
2022-09-28T07:01:32.460Z,26.2
2022-09-28T07:02:35.390Z,26.2
2022-09-28T07:03:38.127Z,26.2
2022-09-28T07:04:40.629Z,26.2
2022-09-28T07:05:42.313Z,26.2
2022-09-28T07:06:44.511Z,26.2
2022-09-28T07:07:46.761Z,26.2
2022-09-28T07:10:58.669Z,26.2
2022-09-28T07:12:00.885Z,26.2
2022-09-28T07:13:03.331Z,26.2
2022-09-28T07:14:05.889Z,26.2
2022-09-28T07:15:08.383Z,26.2
2022-09-28T07:16:11.063Z,26.2
2022-09-28T07:17:15.818Z,26.2
2022-09-28T07:18:18.134Z,26.2
2022-09-28T07:19:20.914Z,26.2
2022-09-28T07:20:23.133Z,26.2
2022-09-28T07:24:40.649Z,26.2
2022-09-28T07:25:43.180Z,26.2
2022-09-28T07:26:45.424Z,26.2
2022-09-28T07:27:47.644Z,26.2
2022-09-28T07:28:49.900Z,26.2
2022-09-28T07:29:52.397Z,26.2
2022-09-28T07:30:55.053Z,26.1
2022-09-28T07:31:57.544Z,26.2
2022-09-28T07:33:00.022Z,26.2
2022-09-28T07:34:02.276Z,26.2
2022-09-28T07:35:04.495Z,26.2
2022-09-28T07:36:06.801Z,26.1
2022-09-28T07:37:09.280Z,26.2
2022-09-28T07:38:11.746Z,26.2
2022-09-28T07:39:13.403Z,26.2
2022-09-28T07:40:16.130Z,26.2
2022-09-28T07:41:18.513Z,26.2
2022-09-28T07:42:21.000Z,26.2
2022-09-28T07:43:23.505Z,26.2
2022-09-28T07:44:25.721Z,26.2
2022-09-28T07:45:28.297Z,26.1
2022-09-28T07:46:30.595Z,26.2
2022-09-28T07:48:38.104Z,26.1
2022-09-28T07:49:40.594Z,26.1
2022-09-28T07:50:43.105Z,26.1
2022-09-28T07:51:45.608Z,26.1
2022-09-28T07:52:48.083Z,26.1
2022-09-28T07:53:50.565Z,26.1
2022-09-28T07:54:53.048Z,26.1
2022-09-28T07:55:55.254Z,26.1
2022-09-28T07:56:57.544Z,26.1
2022-09-28T07:58:00.018Z,26.1
2022-09-28T07:59:02.234Z,26.1
2022-09-28T08:00:04.438Z,26.1
2022-09-28T08:01:07.316Z,26.1
2022-09-28T08:02:10.235Z,26.1
2022-09-28T08:03:12.960Z,26.1
2022-09-28T08:04:15.442Z,26.1
2022-09-28T08:05:17.635Z,26.1
2022-09-28T08:06:19.846Z,26.1
2022-09-28T08:08:27.343Z,26.1
2022-09-28T08:09:29.838Z,26.1
2022-09-28T08:10:32.076Z,26.1
2022-09-28T08:11:34.289Z,26.1
2022-09-28T08:12:36.787Z,26.1
2022-09-28T08:13:39.258Z,26.1
2022-09-28T08:14:41.761Z,26.1
2022-09-28T08:15:44.002Z,26.1
2022-09-28T08:17:51.471Z,26.1
2022-09-28T08:18:53.699Z,26.1
2022-09-28T08:19:56.180Z,26.1
2022-09-28T08:20:58.662Z,26.1
2022-09-28T08:22:00.879Z,26.1
2022-09-28T08:23:03.090Z,26.1
2022-09-28T08:24:05.575Z,26.1
2022-09-28T08:25:08.046Z,26.1
2022-09-28T08:27:15.469Z,26.1
2022-09-28T08:28:17.985Z,26.1
2022-09-28T08:29:20.463Z,26.1
2022-09-28T08:30:22.893Z,26.1
2022-09-28T08:31:25.231Z,26.1
2022-09-28T08:32:27.165Z,26.1
2022-09-28T08:33:29.646Z,26.1
2022-09-28T08:34:31.857Z,26.1
2022-09-28T08:35:34.444Z,26.1
2022-09-28T08:36:36.669Z,26.1
2022-09-28T08:37:38.315Z,26.1
2022-09-28T08:38:40.225Z,26.1
2022-09-28T08:39:42.723Z,26.1
2022-09-28T08:40:45.364Z,26.1
2022-09-28T08:41:47.759Z,26.1
2022-09-28T08:42:50.234Z,26.1
2022-09-28T08:43:52.470Z,26.1
2022-09-28T08:44:54.686Z,26.1
2022-09-28T08:45:56.765Z,26.1
2022-09-28T08:46:59.158Z,26.1
2022-09-28T08:48:01.672Z,26.1
2022-09-28T08:50:09.184Z,26.1
2022-09-28T08:51:11.770Z,26.1
2022-09-28T08:52:13.998Z,26.1
2022-09-28T08:53:15.913Z,26.1
2022-09-28T08:54:17.710Z,26.1
2022-09-28T08:55:20.139Z,26.1
2022-09-28T08:56:22.350Z,26.1
2022-09-28T08:57:24.557Z,26.1
2022-09-28T08:58:27.035Z,26.1
2022-09-28T08:59:29.541Z,26.1
2022-09-28T09:00:31.757Z,26.1
2022-09-28T09:01:34.186Z,26.1
2022-09-28T09:02:37.103Z,26.1
2022-09-28T09:03:39.471Z,26.1
2022-09-28T09:04:41.708Z,26.1
2022-09-28T09:05:43.922Z,26.1
2022-09-28T09:06:46.434Z,26.1
2022-09-28T09:07:48.342Z,26.1
2022-09-28T09:08:50.868Z,26.1
2022-09-28T09:09:53.075Z,26.1
2022-09-28T09:10:55.570Z,26.1
2022-09-28T09:11:57.793Z,26.1
2022-09-28T09:13:00.039Z,26.1
2022-09-28T09:14:02.073Z,26.1
2022-09-28T09:15:04.617Z,26.1
2022-09-28T09:16:06.846Z,26.1
2022-09-28T09:17:09.330Z,26.1
2022-09-28T09:18:12.589Z,26.1
2022-09-28T09:19:20.254Z,26.1
2022-09-28T09:20:22.722Z,26.1
2022-09-28T09:21:24.655Z,26.1
2022-09-28T09:22:26.950Z,26.1
2022-09-28T09:23:29.159Z,26.1
2022-09-28T09:24:31.628Z,26.1
2022-09-28T09:26:38.874Z,26.1
2022-09-28T09:27:41.422Z,26.1
2022-09-28T09:28:43.637Z,26.1
2022-09-28T09:29:46.165Z,26.1
2022-09-28T09:30:48.800Z,26.1
2022-09-28T09:31:50.864Z,26.1
2022-09-28T09:32:52.536Z,26.1
2022-09-28T09:33:55.047Z,26.1
2022-09-28T09:34:57.258Z,26.1
2022-09-28T09:35:59.743Z,26.1
2022-09-28T09:37:02.228Z,26.1
2022-09-28T09:38:04.471Z,26.1
2022-09-28T09:39:07.007Z,26.1
2022-09-28T09:40:09.613Z,26.1
2022-09-28T09:42:15.549Z,26.1
2022-09-28T09:43:17.778Z,26.1
2022-09-28T09:44:20.624Z,26.1
2022-09-28T09:45:22.895Z,26.1
2022-09-28T09:46:25.404Z,26.1
2022-09-28T09:47:27.868Z,26.1
2022-09-28T09:48:29.937Z,26.1
2022-09-28T09:49:32.511Z,26.1
2022-09-28T09:50:34.762Z,26.1
2022-09-28T09:51:37.021Z,26.1
2022-09-28T09:53:44.636Z,26.1
2022-09-28T09:54:46.863Z,26.1
2022-09-28T09:55:49.108Z,26.1
2022-09-28T09:56:51.328Z,26.1
2022-09-28T09:57:53.651Z,26.1
2022-09-28T09:58:55.547Z,26.1
2022-09-28T09:59:58.067Z,26.1
2022-09-28T10:01:00.777Z,26.1
2022-09-28T10:02:03.495Z,26.1
2022-09-28T10:03:10.556Z,26.1
2022-09-28T10:04:12.763Z,26.1
2022-09-28T10:05:15.010Z,26.1
2022-09-28T10:06:17.216Z,26.1
2022-09-28T10:07:19.686Z,26.1
2022-09-28T10:08:22.202Z,26.1
2022-09-28T10:09:24.692Z,26.1
2022-09-28T10:10:26.968Z,26.1
2022-09-28T10:11:29.174Z,26.1
2022-09-28T10:12:31.370Z,26.1
2022-09-28T10:13:33.301Z,26.1
2022-09-28T10:14:35.777Z,26.1
2022-09-28T10:15:38.256Z,26.1
2022-09-28T10:16:40.650Z,26.1
2022-09-28T10:17:43.328Z,26.1
2022-09-28T10:18:45.564Z,26.1
2022-09-28T10:19:47.471Z,26.1
2022-09-28T10:20:50.003Z,26.1
2022-09-28T10:21:52.499Z,26.1
2022-09-28T10:22:54.693Z,26.1
2022-09-28T10:23:57.173Z,26.1
2022-09-28T10:24:59.377Z,26.1
2022-09-28T10:26:01.877Z,26.1
2022-09-28T10:27:04.352Z,26.1
2022-09-28T10:28:06.550Z,26.1
2022-09-28T10:29:08.471Z,26.1
2022-09-28T10:30:10.672Z,26.1
2022-09-28T10:31:12.882Z,26.1
2022-09-28T10:32:15.545Z,26.1
2022-09-28T10:33:18.038Z,26.1
2022-09-28T10:34:20.644Z,26.1
2022-09-28T10:35:22.838Z,26.1
2022-09-28T10:36:24.574Z,26.1
2022-09-28T10:37:27.078Z,26.1
2022-09-28T10:38:28.701Z,26.1
2022-09-28T10:39:31.174Z,26.1
2022-09-28T10:40:33.827Z,26
2022-09-28T10:41:36.561Z,26.1
2022-09-28T10:42:38.747Z,26
2022-09-28T10:43:41.217Z,26
2022-09-28T10:44:48.219Z,26
2022-09-28T10:45:50.560Z,26.1
2022-09-28T10:46:52.919Z,26
2022-09-28T10:47:55.413Z,26
2022-09-28T10:48:57.364Z,26
2022-09-28T10:49:59.287Z,26
2022-09-28T10:51:01.774Z,26
2022-09-28T10:52:04.272Z,26
2022-09-28T10:53:06.494Z,26
2022-09-28T10:54:08.668Z,26
2022-09-28T10:55:11.163Z,26
2022-09-28T10:56:13.642Z,26
2022-09-28T10:57:15.870Z,26
2022-09-28T10:58:18.350Z,26
2022-09-28T10:59:20.824Z,26
2022-09-28T11:00:23.053Z,26
2022-09-28T11:01:25.620Z,26
2022-09-28T11:03:34.013Z,26
2022-09-28T11:04:36.494Z,26
2022-09-28T11:05:38.975Z,26
2022-09-28T11:06:41.170Z,26
2022-09-28T11:07:43.672Z,26
2022-09-28T11:08:46.400Z,26
2022-09-28T11:09:49.854Z,26
2022-09-28T11:10:52.335Z,26
2022-09-28T11:11:54.266Z,26
2022-09-28T11:12:56.761Z,26
2022-09-28T11:13:58.978Z,26
2022-09-28T11:15:01.181Z,26
2022-09-28T11:16:03.402Z,26
2022-09-28T11:17:05.802Z,26
2022-09-28T11:18:08.554Z,26
2022-09-28T11:19:11.231Z,26
2022-09-28T11:20:13.752Z,26
2022-09-28T11:21:16.243Z,26
2022-09-28T11:22:18.729Z,26
2022-09-28T11:23:20.694Z,26
2022-09-28T11:24:24.310Z,26
2022-09-28T11:25:28.033Z,26
2022-09-28T11:26:30.520Z,26
2022-09-28T11:27:32.994Z,26
2022-09-28T11:28:35.210Z,26
2022-09-28T11:29:37.393Z,26
2022-09-28T11:30:39.714Z,26
2022-09-28T11:31:42.351Z,26
2022-09-28T11:32:44.825Z,26
2022-09-28T11:33:46.757Z,26
2022-09-28T11:35:53.955Z,26
2022-09-28T11:38:01.197Z,26
2022-09-28T11:39:03.147Z,26
2022-09-28T11:40:05.824Z,26
2022-09-28T11:41:08.532Z,26
2022-09-28T11:43:17.888Z,26
2022-09-28T11:44:20.713Z,26
2022-09-28T11:45:22.933Z,26
2022-09-28T11:46:25.356Z,26
2022-09-28T11:47:28.080Z,26
2022-09-28T11:48:29.997Z,26
2022-09-28T11:49:32.214Z,26
2022-09-28T11:50:34.439Z,26
2022-09-28T11:51:36.710Z,26
2022-09-28T11:52:38.933Z,26
2022-09-28T11:53:41.408Z,26
2022-09-28T11:54:43.655Z,26
2022-09-28T11:55:45.869Z,26
2022-09-28T11:56:48.354Z,26
2022-09-28T11:57:50.835Z,26
2022-09-28T11:58:53.023Z,26
2022-09-28T11:59:55.420Z,26
2022-09-28T12:00:57.635Z,26
2022-09-28T12:02:00.345Z,26
2022-09-28T12:03:03.593Z,26
2022-09-28T12:04:06.304Z,26
2022-09-28T12:05:08.497Z,26
2022-09-28T12:06:10.996Z,26
2022-09-28T12:07:13.209Z,26
2022-09-28T12:08:15.730Z,26
2022-09-28T12:09:18.437Z,26
2022-09-28T12:10:21.028Z,26
2022-09-28T12:11:23.265Z,26
2022-09-28T12:12:25.768Z,26
2022-09-28T12:13:28.251Z,26
2022-09-28T12:14:30.458Z,26
2022-09-28T12:17:43.171Z,26
2022-09-28T12:18:45.754Z,26
2022-09-28T12:19:48.181Z,26
2022-09-28T12:20:50.400Z,26
2022-09-28T12:21:52.607Z,26
2022-09-28T12:22:54.812Z,26
2022-09-28T12:23:56.771Z,26
2022-09-28T12:24:58.947Z,26
2022-09-28T12:26:01.187Z,26
2022-09-28T12:27:03.419Z,26
2022-09-28T12:28:05.903Z,26
2022-09-28T12:29:08.392Z,26
2022-09-28T12:30:10.873Z,26
2022-09-28T12:31:13.683Z,26
2022-09-28T12:32:16.105Z,26
2022-09-28T12:33:18.341Z,26
2022-09-28T12:34:20.874Z,26
2022-09-28T12:35:23.107Z,26
2022-09-28T12:36:25.318Z,26
2022-09-28T12:37:27.256Z,26
2022-09-28T12:38:29.741Z,26
2022-09-28T12:40:37.181Z,26
2022-09-28T12:41:39.032Z,26
2022-09-28T12:42:41.537Z,26
2022-09-28T12:43:43.773Z,26
2022-09-28T12:44:46.022Z,26
2022-09-28T12:46:53.546Z,26
2022-09-28T12:47:56.225Z,26
2022-09-28T12:51:08.457Z,26
2022-09-28T12:52:10.391Z,26
2022-09-28T12:53:12.595Z,26
2022-09-28T12:54:15.188Z,26
2022-09-28T12:55:17.589Z,26
2022-09-28T12:57:25.087Z,26
2022-09-28T12:58:27.586Z,26
2022-09-28T12:59:29.796Z,26
2022-09-28T13:00:32.269Z,26
2022-09-28T13:01:34.733Z,26
2022-09-28T13:02:37.193Z,26
2022-09-28T13:03:39.922Z,26
2022-09-28T13:04:42.125Z,26
2022-09-28T13:05:44.065Z,26
2022-09-28T13:06:46.282Z,26
2022-09-28T13:07:48.496Z,26
2022-09-28T13:08:50.985Z,26
2022-09-28T13:09:52.928Z,26
2022-09-28T13:10:55.194Z,26
2022-09-28T13:11:57.227Z,26
2022-09-28T13:12:59.724Z,26
2022-09-28T13:14:02.212Z,26
2022-09-28T13:15:04.423Z,26
2022-09-28T13:16:06.947Z,26
2022-09-28T13:17:09.607Z,26
2022-09-28T13:18:11.818Z,26
2022-09-28T13:19:14.463Z,26
2022-09-28T13:20:16.886Z,26
2022-09-28T13:21:19.359Z,26
2022-09-28T13:22:21.587Z,26
2022-09-28T13:23:23.766Z,26
2022-09-28T13:25:31.229Z,26
2022-09-28T13:26:33.239Z,26
2022-09-28T13:27:35.444Z,26
2022-09-28T13:28:37.393Z,26
2022-09-28T13:30:42.435Z,26
2022-09-28T13:31:44.684Z,26
2022-09-28T13:32:46.935Z,26
2022-09-28T13:33:49.430Z,26
2022-09-28T13:34:51.665Z,26
2022-09-28T13:35:53.866Z,26
2022-09-28T13:36:56.348Z,26
2022-09-28T13:37:58.549Z,26
2022-09-28T13:39:00.810Z,26
2022-09-28T13:40:03.509Z,26
2022-09-28T13:41:06.704Z,26
2022-09-28T13:42:09.251Z,26
2022-09-28T13:43:11.934Z,26
2022-09-28T13:44:18.742Z,26
2022-09-28T13:45:21.719Z,26
2022-09-28T13:46:24.606Z,26
2022-09-28T13:47:27.461Z,26
2022-09-28T13:48:29.686Z,26
2022-09-28T13:49:32.176Z,26
2022-09-28T13:50:34.726Z,26.1
2022-09-28T13:51:37.241Z,26
2022-09-28T13:52:39.774Z,26
2022-09-28T13:53:42.296Z,26
2022-09-28T13:54:44.617Z,26
2022-09-28T13:55:46.881Z,26
2022-09-28T13:56:49.402Z,26
2022-09-28T13:57:51.940Z,26
2022-09-28T13:58:54.131Z,26
2022-09-28T13:59:56.693Z,26
2022-09-28T14:00:58.967Z,26
2022-09-28T14:03:06.837Z,26
2022-09-28T14:04:09.342Z,26
2022-09-28T14:05:11.346Z,26
2022-09-28T14:06:13.994Z,26
2022-09-28T14:07:16.140Z,26
2022-09-28T14:08:19.054Z,26
2022-09-28T14:09:21.680Z,26
2022-09-28T14:10:24.263Z,26
2022-09-28T14:11:26.747Z,26
2022-09-28T14:12:28.705Z,26
2022-09-28T14:13:31.209Z,26
2022-09-28T14:14:33.409Z,26
2022-09-28T14:15:36.152Z,26
2022-09-28T14:16:38.437Z,26
2022-09-28T14:17:40.954Z,26
2022-09-28T14:18:43.183Z,26
2022-09-28T14:19:45.413Z,26
2022-09-28T14:20:47.654Z,26
2022-09-28T14:21:49.929Z,26
2022-09-28T14:22:52.449Z,26
2022-09-28T14:24:59.903Z,26
2022-09-28T14:26:02.121Z,26
2022-09-28T14:27:04.089Z,26
2022-09-28T14:28:06.609Z,26
2022-09-28T14:29:11.364Z,26
2022-09-28T14:30:13.941Z,26
2022-09-28T14:31:16.362Z,26
2022-09-28T14:32:19.093Z,26
2022-09-28T14:33:21.589Z,26
2022-09-28T14:34:23.812Z,26
2022-09-28T14:35:26.054Z,26
2022-09-28T14:36:27.973Z,26
2022-09-28T14:37:30.479Z,26
2022-09-28T14:38:32.684Z,26
2022-09-28T14:39:35.205Z,26
2022-09-28T14:40:37.931Z,26
2022-09-28T14:41:40.320Z,26
2022-09-28T14:42:42.357Z,26
2022-09-28T14:43:45.006Z,26
2022-09-28T14:44:47.238Z,26
2022-09-28T14:45:49.617Z,26